Flight Track Log - Related Links

Times and Time Zones

All times are in EDT time to prevent confusion due to time zone crossing. See the EJA929 flight status page for this flight to view local times or setup timezone preferences in your user account.

Time Position Orientation Groundspeed Altitude Reporting Facility
EDT Latitude Longitude Course Direction KTS MPH feet Rate Location/Type
Wed 11:47:19 AM 29.6703 -95.2583 33° Northeast 200 230 1,800  Level Houston Center
Wed 11:48:13 AM 29.7039 -95.2878 323° Northwest 231 266 2,900 1,180 Climbing Houston Center
Wed 11:48:20 AM 29.7108 -95.3111 289° West 233 268 3,000  Climbing Houston Center
Wed 11:49:15 AM 29.7183 -95.3681 279° West 220 253 2,900  Descending Houston Center
Wed 11:49:21 AM 29.7189 -95.3753 275° West 208 239 3,000  Climbing Houston Center
Wed 11:50:17 AM 29.7019 -95.4272 249° West 216 249 2,900  Descending Houston Center
Wed 11:50:22 AM 29.6969 -95.4331 225° Southwest 204 235 3,000 91 Climbing Houston Center
Wed 11:51:23 AM 29.6639 -95.4853 234° Southwest 206 237 3,000 -51 Level Houston Center
Wed 11:52:20 AM 29.6356 -95.5333 236° Southwest 207 238 2,900  Descending Houston Center
Wed 11:52:24 AM 29.6294 -95.5447 238° Southwest 207 238 3,000  Climbing Houston Center
Wed 11:53:22 AM 29.6008 -95.5850 231° Southwest 207 238 2,900 -197 Descending Houston Center
Wed 11:53:25 AM 29.5894 -95.5903 202° Southwest 208 239 2,800 -968 Descending Houston Center
Wed 11:54:24 AM 29.5353 -95.5978 187° South 206 237 1,900 -689 Descending Houston Center
Wed 11:54:26 AM 29.5333 -95.5967 154° Southeast 196 226 2,100  Climbing Houston Center
Wed 11:55:26 AM 29.4797 -95.5908 175° South 200 230 1,900 -90 Descending Houston Center
Wed 11:55:33 AM 29.4675 -95.5900 177° South 210 242 2,000  Climbing Houston Center
Wed 11:56:28 AM 29.4658 -95.6342 268° West 209 241 1,900  Descending Houston Center
Wed 11:56:34 AM 29.4742 -95.6397 330° Northwest 198 228 2,000 -90 Climbing Houston Center
Wed 11:57:35 AM 29.5297 -95.6500 351° North 198 228 1,800 -508 Descending Houston Center
Wed 11:58:32 AM 29.5675 -95.6525 357° North 187 215 1,000 -706 Descending Houston Center
Wed 11:59:34 AM 29.6006 -95.6558 355° North 147 169 400 -387 Descending Houston Center
Wed 12:00:36 PM 29.6342 -95.6583 356° North 142 163 200 -194 Descending Houston Center

Login

Don't have an account? Register now (free) for customized features, flight alerts, and more!